sensor_id;sensor_type;location;lat;lon;timestamp;temperature;humidity
5808;DHT22;2930;42.678;23.312;2023-03-01T00:01:46;7.20;94.50
5808;DHT22;2930;42.678;23.312;2023-03-01T00:04:12;7.10;94.40
5808;DHT22;2930;42.678;23.312;2023-03-01T00:06:37;7.10;94.60
5808;DHT22;2930;42.678;23.312;2023-03-01T00:09:03;7.10;94.50
5808;DHT22;2930;42.678;23.312;2023-03-01T00:11:31;7.20;94.50
5808;DHT22;2930;42.678;23.312;2023-03-01T00:13:59;7.20;94.40
5808;DHT22;2930;42.678;23.312;2023-03-01T00:16:31;7.10;94.50
5808;DHT22;2930;42.678;23.312;2023-03-01T00:18:59;7.10;94.60
5808;DHT22;2930;42.678;23.312;2023-03-01T00:21:25;7.20;94.40
5808;DHT22;2930;42.678;23.312;2023-03-01T00:23:52;7.10;94.40
5808;DHT22;2930;42.678;23.312;2023-03-01T00:26:19;6.90;94.70
5808;DHT22;2930;42.678;23.312;2023-03-01T00:28:45;6.80;95.40
5808;DHT22;2930;42.678;23.312;2023-03-01T00:31:14;6.80;95.40
5808;DHT22;2930;42.678;23.312;2023-03-01T00:33:40;6.80;95.20
5808;DHT22;2930;42.678;23.312;2023-03-01T00:36:07;6.80;95.20
5808;DHT22;2930;42.678;23.312;2023-03-01T00:38:39;6.80;95.10
5808;DHT22;2930;42.678;23.312;2023-03-01T00:41:12;6.80;95.10
5808;DHT22;2930;42.678;23.312;2023-03-01T00:43:39;6.80;95.10
5808;DHT22;2930;42.678;23.312;2023-03-01T00:46:08;6.80;95.00
5808;DHT22;2930;42.678;23.312;2023-03-01T00:48:35;6.80;95.10
5808;DHT22;2930;42.678;23.312;2023-03-01T00:51:27;6.80;95.00
5808;DHT22;2930;42.678;23.312;2023-03-01T00:53:59;6.80;94.80
5808;DHT22;2930;42.678;23.312;2023-03-01T00:56:25;6.80;94.80
5808;DHT22;2930;42.678;23.312;2023-03-01T00:58:51;6.80;94.70
5808;DHT22;2930;42.678;23.312;2023-03-01T01:01:19;6.80;94.70
5808;DHT22;2930;42.678;23.312;2023-03-01T01:03:52;6.80;94.80
5808;DHT22;2930;42.678;23.312;2023-03-01T01:08:47;6.80;94.70
5808;DHT22;2930;42.678;23.312;2023-03-01T01:11:14;6.70;94.60
5808;DHT22;2930;42.678;23.312;2023-03-01T01:13:40;6.70;94.70
5808;DHT22;2930;42.678;23.312;2023-03-01T01:16:07;6.70;94.80
5808;DHT22;2930;42.678;23.312;2023-03-01T01:18:33;6.70;94.90
5808;DHT22;2930;42.678;23.312;2023-03-01T01:21:07;6.70;94.70
5808;DHT22;2930;42.678;23.312;2023-03-01T01:23:33;6.70;94.50
5808;DHT22;2930;42.678;23.312;2023-03-01T01:26:06;6.60;94.80
5808;DHT22;2930;42.678;23.312;2023-03-01T01:28:33;6.70;94.70
5808;DHT22;2930;42.678;23.312;2023-03-01T01:30:58;6.70;94.60
5808;DHT22;2930;42.678;23.312;2023-03-01T01:33:24;6.60;94.70
5808;DHT22;2930;42.678;23.312;2023-03-01T01:35:50;6.60;94.70
5808;DHT22;2930;42.678;23.312;2023-03-01T01:38:16;6.60;94.70
5808;DHT22;2930;42.678;23.312;2023-03-01T01:40:46;6.50;94.70
5808;DHT22;2930;42.678;23.312;2023-03-01T01:43:39;6.50;94.80
5808;DHT22;2930;42.678;23.312;2023-03-01T01:46:32;6.40;94.80
5808;DHT22;2930;42.678;23.312;2023-03-01T01:49:00;6.40;94.60
5808;DHT22;2930;42.678;23.312;2023-03-01T01:51:38;6.40;94.80
5808;DHT22;2930;42.678;23.312;2023-03-01T01:54:15;6.40;94.70
5808;DHT22;2930;42.678;23.312;2023-03-01T01:56:45;6.50;94.60
5808;DHT22;2930;42.678;23.312;2023-03-01T01:59:12;6.50;94.50
5808;DHT22;2930;42.678;23.312;2023-03-01T02:01:37;6.50;94.50
5808;DHT22;2930;42.678;23.312;2023-03-01T02:04:03;6.50;94.60
5808;DHT22;2930;42.678;23.312;2023-03-01T02:06:36;6.50;94.50
5808;DHT22;2930;42.678;23.312;2023-03-01T02:09:06;6.60;94.30
5808;DHT22;2930;42.678;23.312;2023-03-01T02:11:33;6.60;94.00
5808;DHT22;2930;42.678;23.312;2023-03-01T02:13:59;6.60;94.00
5808;DHT22;2930;42.678;23.312;2023-03-01T02:16:26;6.60;94.10
5808;DHT22;2930;42.678;23.312;2023-03-01T02:18:52;6.60;93.70
5808;DHT22;2930;42.678;23.312;2023-03-01T02:23:59;6.60;93.30
5808;DHT22;2930;42.678;23.312;2023-03-01T02:26:37;6.60;93.30
5808;DHT22;2930;42.678;23.312;2023-03-01T02:29:06;6.60;93.20
5808;DHT22;2930;42.678;23.312;2023-03-01T02:31:32;6.60;93.20
5808;DHT22;2930;42.678;23.312;2023-03-01T02:34:10;6.60;93.20
5808;DHT22;2930;42.678;23.312;2023-03-01T02:36:45;6.60;93.10
5808;DHT22;2930;42.678;23.312;2023-03-01T02:39:18;6.50;93.20
5808;DHT22;2930;42.678;23.312;2023-03-01T02:41:50;6.50;93.30
5808;DHT22;2930;42.678;23.312;2023-03-01T02:44:17;6.50;93.30
5808;DHT22;2930;42.678;23.312;2023-03-01T02:46:47;6.50;93.50
5808;DHT22;2930;42.678;23.312;2023-03-01T02:49:28;6.40;93.70
5808;DHT22;2930;42.678;23.312;2023-03-01T02:55:09;6.30;94.20
5808;DHT22;2930;42.678;23.312;2023-03-01T02:57:38;6.30;94.30
5808;DHT22;2930;42.678;23.312;2023-03-01T03:00:15;6.30;94.50
5808;DHT22;2930;42.678;23.312;2023-03-01T03:02:45;6.40;94.40
5808;DHT22;2930;42.678;23.312;2023-03-01T03:05:15;6.40;94.60
5808;DHT22;2930;42.678;23.312;2023-03-01T03:07:44;6.40;94.40
5808;DHT22;2930;42.678;23.312;2023-03-01T03:10:19;6.50;94.30
5808;DHT22;2930;42.678;23.312;2023-03-01T03:12:53;6.40;94.30
5808;DHT22;2930;42.678;23.312;2023-03-01T03:15:19;6.40;94.40
5808;DHT22;2930;42.678;23.312;2023-03-01T03:17:46;6.30;94.80
5808;DHT22;2930;42.678;23.312;2023-03-01T03:20:15;6.20;95.20
5808;DHT22;2930;42.678;23.312;2023-03-01T03:22:44;6.20;95.10
5808;DHT22;2930;42.678;23.312;2023-03-01T03:25:10;6.30;94.90
5808;DHT22;2930;42.678;23.312;2023-03-01T03:27:40;6.20;95.00
5808;DHT22;2930;42.678;23.312;2023-03-01T03:30:09;6.30;94.70
5808;DHT22;2930;42.678;23.312;2023-03-01T03:32:39;6.30;94.80
5808;DHT22;2930;42.678;23.312;2023-03-01T03:35:06;6.30;94.90
5808;DHT22;2930;42.678;23.312;2023-03-01T03:37:41;6.40;94.80
5808;DHT22;2930;42.678;23.312;2023-03-01T03:40:27;6.40;94.50
5808;DHT22;2930;42.678;23.312;2023-03-01T03:42:52;6.40;94.50
5808;DHT22;2930;42.678;23.312;2023-03-01T03:45:18;6.50;94.40
5808;DHT22;2930;42.678;23.312;2023-03-01T03:47:44;6.50;94.30
5808;DHT22;2930;42.678;23.312;2023-03-01T03:50:28;6.40;94.00
5808;DHT22;2930;42.678;23.312;2023-03-01T03:52:54;6.40;94.20
5808;DHT22;2930;42.678;23.312;2023-03-01T03:55:20;6.40;94.00
5808;DHT22;2930;42.678;23.312;2023-03-01T03:57:47;6.30;94.20
5808;DHT22;2930;42.678;23.312;2023-03-01T04:00:19;6.30;94.20
5808;DHT22;2930;42.678;23.312;2023-03-01T04:02:46;6.20;94.40
5808;DHT22;2930;42.678;23.312;2023-03-01T04:05:14;6.20;94.70
5808;DHT22;2930;42.678;23.312;2023-03-01T04:07:42;6.20;94.50
5808;DHT22;2930;42.678;23.312;2023-03-01T04:10:10;6.30;94.60
5808;DHT22;2930;42.678;23.312;2023-03-01T04:12:36;6.30;94.60
5808;DHT22;2930;42.678;23.312;2023-03-01T04:15:06;6.30;94.60
5808;DHT22;2930;42.678;23.312;2023-03-01T04:17:47;6.30;94.50
5808;DHT22;2930;42.678;23.312;2023-03-01T04:20:17;6.30;94.50
5808;DHT22;2930;42.678;23.312;2023-03-01T04:22:47;6.30;94.50
5808;DHT22;2930;42.678;23.312;2023-03-01T04:25:13;6.30;94.50
5808;DHT22;2930;42.678;23.312;2023-03-01T04:27:40;6.30;94.30
5808;DHT22;2930;42.678;23.312;2023-03-01T04:30:07;6.30;93.90
5808;DHT22;2930;42.678;23.312;2023-03-01T04:32:33;6.40;94.30
5808;DHT22;2930;42.678;23.312;2023-03-01T04:34:59;6.40;94.30
5808;DHT22;2930;42.678;23.312;2023-03-01T04:37:25;6.30;94.40
5808;DHT22;2930;42.678;23.312;2023-03-01T04:39:51;6.30;94.40
5808;DHT22;2930;42.678;23.312;2023-03-01T04:42:17;6.30;94.40
5808;DHT22;2930;42.678;23.312;2023-03-01T04:44:44;6.30;94.50
5808;DHT22;2930;42.678;23.312;2023-03-01T04:47:10;6.30;94.50
5808;DHT22;2930;42.678;23.312;2023-03-01T04:49:35;6.30;94.60
5808;DHT22;2930;42.678;23.312;2023-03-01T04:52:02;6.30;94.70
5808;DHT22;2930;42.678;23.312;2023-03-01T04:54:32;6.30;94.60
5808;DHT22;2930;42.678;23.312;2023-03-01T04:56:58;6.30;94.60
5808;DHT22;2930;42.678;23.312;2023-03-01T04:59:25;6.30;94.70
5808;DHT22;2930;42.678;23.312;2023-03-01T05:01:52;6.30;94.60
5808;DHT22;2930;42.678;23.312;2023-03-01T05:04:22;6.40;94.50
5808;DHT22;2930;42.678;23.312;2023-03-01T05:06:48;6.40;94.40
5808;DHT22;2930;42.678;23.312;2023-03-01T05:09:14;6.40;94.40
5808;DHT22;2930;42.678;23.312;2023-03-01T05:11:39;6.30;94.40
5808;DHT22;2930;42.678;23.312;2023-03-01T05:14:06;6.30;94.40
5808;DHT22;2930;42.678;23.312;2023-03-01T05:16:32;6.20;94.70
5808;DHT22;2930;42.678;23.312;2023-03-01T05:18:58;6.10;94.90
5808;DHT22;2930;42.678;23.312;2023-03-01T05:21:25;6.20;94.90
5808;DHT22;2930;42.678;23.312;2023-03-01T05:23:51;6.10;95.00
5808;DHT22;2930;42.678;23.312;2023-03-01T05:26:18;6.20;95.00
5808;DHT22;2930;42.678;23.312;2023-03-01T05:28:44;6.20;95.00
5808;DHT22;2930;42.678;23.312;2023-03-01T05:31:10;6.20;95.10
5808;DHT22;2930;42.678;23.312;2023-03-01T05:33:40;6.20;95.20
5808;DHT22;2930;42.678;23.312;2023-03-01T05:36:09;6.20;95.20
5808;DHT22;2930;42.678;23.312;2023-03-01T05:38:35;6.20;95.20
5808;DHT22;2930;42.678;23.312;2023-03-01T05:41:01;6.20;95.20
5808;DHT22;2930;42.678;23.312;2023-03-01T05:43:30;6.20;95.20
5808;DHT22;2930;42.678;23.312;2023-03-01T05:45:59;6.20;95.00
5808;DHT22;2930;42.678;23.312;2023-03-01T05:48:25;6.20;95.00
5808;DHT22;2930;42.678;23.312;2023-03-01T05:50:51;6.30;94.90
5808;DHT22;2930;42.678;23.312;2023-03-01T05:53:19;6.30;94.70
5808;DHT22;2930;42.678;23.312;2023-03-01T05:55:47;6.30;94.60
5808;DHT22;2930;42.678;23.312;2023-03-01T05:58:18;6.40;94.60
5808;DHT22;2930;42.678;23.312;2023-03-01T06:00:45;6.40;94.40
5808;DHT22;2930;42.678;23.312;2023-03-01T06:03:12;6.40;94.50
5808;DHT22;2930;42.678;23.312;2023-03-01T06:05:39;6.50;94.30
5808;DHT22;2930;42.678;23.312;2023-03-01T06:08:05;6.50;94.20
5808;DHT22;2930;42.678;23.312;2023-03-01T06:10:31;6.50;94.30
5808;DHT22;2930;42.678;23.312;2023-03-01T06:12:57;6.60;93.90
5808;DHT22;2930;42.678;23.312;2023-03-01T06:15:23;6.60;93.60
5808;DHT22;2930;42.678;23.312;2023-03-01T06:17:49;6.60;93.50
5808;DHT22;2930;42.678;23.312;2023-03-01T06:20:20;6.60;93.40
5808;DHT22;2930;42.678;23.312;2023-03-01T06:22:47;6.70;93.30
5808;DHT22;2930;42.678;23.312;2023-03-01T06:25:19;6.70;93.30
5808;DHT22;2930;42.678;23.312;2023-03-01T06:27:45;6.70;93.30
5808;DHT22;2930;42.678;23.312;2023-03-01T06:30:12;6.70;93.10
5808;DHT22;2930;42.678;23.312;2023-03-01T06:32:39;6.70;93.30
5808;DHT22;2930;42.678;23.312;2023-03-01T06:35:08;6.70;93.50
5808;DHT22;2930;42.678;23.312;2023-03-01T06:37:34;6.70;93.40
5808;DHT22;2930;42.678;23.312;2023-03-01T06:40:01;6.70;93.50
5808;DHT22;2930;42.678;23.312;2023-03-01T06:42:34;6.80;93.20
5808;DHT22;2930;42.678;23.312;2023-03-01T06:45:00;6.80;93.20
5808;DHT22;2930;42.678;23.312;2023-03-01T06:47:26;6.90;93.00
5808;DHT22;2930;42.678;23.312;2023-03-01T06:49:51;6.90;93.00
5808;DHT22;2930;42.678;23.312;2023-03-01T06:52:17;6.90;92.80
5808;DHT22;2930;42.678;23.312;2023-03-01T06:54:43;7.00;92.60
5808;DHT22;2930;42.678;23.312;2023-03-01T06:57:08;7.00;92.60
5808;DHT22;2930;42.678;23.312;2023-03-01T06:59:34;7.00;92.60
5808;DHT22;2930;42.678;23.312;2023-03-01T07:01:59;7.00;92.50
5808;DHT22;2930;42.678;23.312;2023-03-01T07:04:25;7.10;92.60
5808;DHT22;2930;42.678;23.312;2023-03-01T07:06:54;7.10;92.50
5808;DHT22;2930;42.678;23.312;2023-03-01T07:09:22;7.10;92.20
5808;DHT22;2930;42.678;23.312;2023-03-01T07:11:48;7.10;92.10
5808;DHT22;2930;42.678;23.312;2023-03-01T07:14:14;7.10;92.10
5808;DHT22;2930;42.678;23.312;2023-03-01T07:16:40;7.20;92.10
5808;DHT22;2930;42.678;23.312;2023-03-01T07:19:05;7.20;92.00
5808;DHT22;2930;42.678;23.312;2023-03-01T07:21:31;7.30;91.80
5808;DHT22;2930;42.678;23.312;2023-03-01T07:23:57;7.30;91.80
5808;DHT22;2930;42.678;23.312;2023-03-01T07:26:23;7.40;91.50
5808;DHT22;2930;42.678;23.312;2023-03-01T07:28:48;7.50;91.60
5808;DHT22;2930;42.678;23.312;2023-03-01T07:31:14;7.50;91.40
5808;DHT22;2930;42.678;23.312;2023-03-01T07:33:40;7.60;91.00
5808;DHT22;2930;42.678;23.312;2023-03-01T07:36:06;7.70;90.70
5808;DHT22;2930;42.678;23.312;2023-03-01T07:38:32;7.80;90.30
5808;DHT22;2930;42.678;23.312;2023-03-01T07:41:03;7.90;90.00
5808;DHT22;2930;42.678;23.312;2023-03-01T07:43:29;8.00;89.60
5808;DHT22;2930;42.678;23.312;2023-03-01T07:45:58;8.00;89.40
5808;DHT22;2930;42.678;23.312;2023-03-01T07:48:25;8.20;89.10
5808;DHT22;2930;42.678;23.312;2023-03-01T07:50:51;8.20;89.10
5808;DHT22;2930;42.678;23.312;2023-03-01T07:53:16;8.30;88.80
5808;DHT22;2930;42.678;23.312;2023-03-01T07:55:42;8.40;88.40
5808;DHT22;2930;42.678;23.312;2023-03-01T07:58:08;8.50;87.90
5808;DHT22;2930;42.678;23.312;2023-03-01T08:00:33;8.50;87.30
5808;DHT22;2930;42.678;23.312;2023-03-01T08:03:00;8.50;87.40
5808;DHT22;2930;42.678;23.312;2023-03-01T08:05:26;8.60;87.30
5808;DHT22;2930;42.678;23.312;2023-03-01T08:07:52;8.60;86.90
5808;DHT22;2930;42.678;23.312;2023-03-01T08:10:19;8.60;86.70
5808;DHT22;2930;42.678;23.312;2023-03-01T08:12:44;8.60;86.70
5808;DHT22;2930;42.678;23.312;2023-03-01T08:15:12;8.50;86.50
5808;DHT22;2930;42.678;23.312;2023-03-01T08:17:37;8.50;86.90
5808;DHT22;2930;42.678;23.312;2023-03-01T08:20:03;8.50;86.90
5808;DHT22;2930;42.678;23.312;2023-03-01T08:22:32;8.60;87.20
5808;DHT22;2930;42.678;23.312;2023-03-01T08:24:58;8.70;86.40
5808;DHT22;2930;42.678;23.312;2023-03-01T08:27:24;8.70;86.10
5808;DHT22;2930;42.678;23.312;2023-03-01T08:29:49;8.70;85.70
5808;DHT22;2930;42.678;23.312;2023-03-01T08:32:15;8.70;86.10
5808;DHT22;2930;42.678;23.312;2023-03-01T08:34:41;8.70;86.10
5808;DHT22;2930;42.678;23.312;2023-03-01T08:37:06;8.70;85.70
5808;DHT22;2930;42.678;23.312;2023-03-01T08:39:32;8.70;85.80
5808;DHT22;2930;42.678;23.312;2023-03-01T08:41:58;8.50;85.50
5808;DHT22;2930;42.678;23.312;2023-03-01T08:44:23;8.50;86.30
5808;DHT22;2930;42.678;23.312;2023-03-01T08:46:50;8.40;85.90
5808;DHT22;2930;42.678;23.312;2023-03-01T08:49:19;8.60;86.00
5808;DHT22;2930;42.678;23.312;2023-03-01T08:51:46;8.70;85.90
5808;DHT22;2930;42.678;23.312;2023-03-01T08:54:18;8.60;84.50
5808;DHT22;2930;42.678;23.312;2023-03-01T08:56:44;8.70;85.50
5808;DHT22;2930;42.678;23.312;2023-03-01T08:59:11;8.80;84.80
5808;DHT22;2930;42.678;23.312;2023-03-01T09:01:37;8.90;84.50
5808;DHT22;2930;42.678;23.312;2023-03-01T09:04:03;9.10;84.40
5808;DHT22;2930;42.678;23.312;2023-03-01T09:09:14;9.40;83.10
5808;DHT22;2930;42.678;23.312;2023-03-01T09:11:40;9.80;82.30
5808;DHT22;2930;42.678;23.312;2023-03-01T09:14:06;9.80;82.30
5808;DHT22;2930;42.678;23.312;2023-03-01T09:16:32;10.00;81.60
5808;DHT22;2930;42.678;23.312;2023-03-01T09:19:02;10.10;80.60
5808;DHT22;2930;42.678;23.312;2023-03-01T09:21:28;10.20;80.20
5808;DHT22;2930;42.678;23.312;2023-03-01T09:23:56;10.30;79.70
5808;DHT22;2930;42.678;23.312;2023-03-01T09:26:23;10.10;79.50
5808;DHT22;2930;42.678;23.312;2023-03-01T09:28:51;10.10;80.40
5808;DHT22;2930;42.678;23.312;2023-03-01T09:31:18;10.20;80.70
5808;DHT22;2930;42.678;23.312;2023-03-01T09:33:47;10.40;80.20
5808;DHT22;2930;42.678;23.312;2023-03-01T09:36:18;10.40;79.80
5808;DHT22;2930;42.678;23.312;2023-03-01T09:38:44;10.60;79.60
5808;DHT22;2930;42.678;23.312;2023-03-01T09:46:51;10.50;78.60
5808;DHT22;2930;42.678;23.312;2023-03-01T09:49:20;10.50;79.20
5808;DHT22;2930;42.678;23.312;2023-03-01T09:54:23;10.60;78.80
5808;DHT22;2930;42.678;23.312;2023-03-01T10:03:01;10.70;78.80
5808;DHT22;2930;42.678;23.312;2023-03-01T10:08:28;10.50;79.20
5808;DHT22;2930;42.678;23.312;2023-03-01T10:10:57;10.50;79.20
5808;DHT22;2930;42.678;23.312;2023-03-01T10:13:41;10.60;79.00
5808;DHT22;2930;42.678;23.312;2023-03-01T10:16:23;10.60;79.00
5808;DHT22;2930;42.678;23.312;2023-03-01T10:19:03;10.60;79.00
5808;DHT22;2930;42.678;23.312;2023-03-01T10:21:30;10.70;79.10
5808;DHT22;2930;42.678;23.312;2023-03-01T10:24:08;10.70;78.90
5808;DHT22;2930;42.678;23.312;2023-03-01T10:26:40;10.80;78.70
5808;DHT22;2930;42.678;23.312;2023-03-01T10:29:11;10.80;78.40
5808;DHT22;2930;42.678;23.312;2023-03-01T10:31:44;10.80;78.30
5808;DHT22;2930;42.678;23.312;2023-03-01T10:34:25;10.90;78.40
5808;DHT22;2930;42.678;23.312;2023-03-01T10:36:56;11.00;77.80
5808;DHT22;2930;42.678;23.312;2023-03-01T10:39:25;11.00;77.80
5808;DHT22;2930;42.678;23.312;2023-03-01T10:42:22;11.00;77.90
5808;DHT22;2930;42.678;23.312;2023-03-01T10:44:50;11.20;78.00
5808;DHT22;2930;42.678;23.312;2023-03-01T10:47:26;11.40;77.50
5808;DHT22;2930;42.678;23.312;2023-03-01T10:50:01;11.60;76.90
5808;DHT22;2930;42.678;23.312;2023-03-01T10:52:33;11.60;75.20
5808;DHT22;2930;42.678;23.312;2023-03-01T10:58:07;11.50;77.20
5808;DHT22;2930;42.678;23.312;2023-03-01T11:00:52;11.70;77.00
5808;DHT22;2930;42.678;23.312;2023-03-01T11:03:31;12.00;76.50
5808;DHT22;2930;42.678;23.312;2023-03-01T11:08:41;11.70;74.70
5808;DHT22;2930;42.678;23.312;2023-03-01T11:11:29;11.30;75.90
5808;DHT22;2930;42.678;23.312;2023-03-01T11:14:07;11.00;76.60
5808;DHT22;2930;42.678;23.312;2023-03-01T11:16:40;10.90;77.40
5808;DHT22;2930;42.678;23.312;2023-03-01T11:24:30;10.60;78.10
5808;DHT22;2930;42.678;23.312;2023-03-01T11:27:01;10.60;78.30
5808;DHT22;2930;42.678;23.312;2023-03-01T11:29:35;10.60;78.20
5808;DHT22;2930;42.678;23.312;2023-03-01T11:32:06;10.30;78.60
5808;DHT22;2930;42.678;23.312;2023-03-01T11:37:11;10.00;80.00
5808;DHT22;2930;42.678;23.312;2023-03-01T11:42:30;10.10;79.70
5808;DHT22;2930;42.678;23.312;2023-03-01T11:45:02;10.20;79.50
5808;DHT22;2930;42.678;23.312;2023-03-01T12:06:00;10.20;80.10
5808;DHT22;2930;42.678;23.312;2023-03-01T12:08:46;10.20;80.30
5808;DHT22;2930;42.678;23.312;2023-03-01T12:17:31;10.50;79.70
5808;DHT22;2930;42.678;23.312;2023-03-01T12:20:25;10.70;79.70
5808;DHT22;2930;42.678;23.312;2023-03-01T12:26:05;11.30;78.10
5808;DHT22;2930;42.678;23.312;2023-03-01T12:45:06;10.30;78.80
5808;DHT22;2930;42.678;23.312;2023-03-01T12:50:38;9.90;80.20
5808;DHT22;2930;42.678;23.312;2023-03-01T12:53:07;9.80;80.50
5808;DHT22;2930;42.678;23.312;2023-03-01T12:55:41;9.80;81.00
5808;DHT22;2930;42.678;23.312;2023-03-01T12:58:13;9.90;80.60
5808;DHT22;2930;42.678;23.312;2023-03-01T13:01:13;9.80;80.40
5808;DHT22;2930;42.678;23.312;2023-03-01T13:11:52;10.20;80.20
5808;DHT22;2930;42.678;23.312;2023-03-01T13:16:51;10.20;79.90
5808;DHT22;2930;42.678;23.312;2023-03-01T13:19:25;10.30;80.10
5808;DHT22;2930;42.678;23.312;2023-03-01T13:21:53;10.50;79.90
5808;DHT22;2930;42.678;23.312;2023-03-01T13:24:43;10.60;79.10
5808;DHT22;2930;42.678;23.312;2023-03-01T13:27:22;10.60;78.80
5808;DHT22;2930;42.678;23.312;2023-03-01T13:29:59;10.40;79.10
5808;DHT22;2930;42.678;23.312;2023-03-01T13:32:30;10.40;79.40
5808;DHT22;2930;42.678;23.312;2023-03-01T13:37:41;10.40;79.40
5808;DHT22;2930;42.678;23.312;2023-03-01T13:42:54;10.50;79.30
5808;DHT22;2930;42.678;23.312;2023-03-01T13:48:00;10.30;79.20
5808;DHT22;2930;42.678;23.312;2023-03-01T13:50:43;10.20;79.30
5808;DHT22;2930;42.678;23.312;2023-03-01T13:53:14;10.00;79.80
5808;DHT22;2930;42.678;23.312;2023-03-01T13:55:44;9.60;80.10
5808;DHT22;2930;42.678;23.312;2023-03-01T13:58:33;9.50;81.00
5808;DHT22;2930;42.678;23.312;2023-03-01T14:01:04;9.40;81.50
5808;DHT22;2930;42.678;23.312;2023-03-01T14:03:32;9.40;81.90
5808;DHT22;2930;42.678;23.312;2023-03-01T14:06:12;9.50;81.90
5808;DHT22;2930;42.678;23.312;2023-03-01T14:08:38;9.60;82.00
5808;DHT22;2930;42.678;23.312;2023-03-01T14:19:21;9.90;80.80
5808;DHT22;2930;42.678;23.312;2023-03-01T14:24:51;9.70;81.80
5808;DHT22;2930;42.678;23.312;2023-03-01T14:27:18;9.60;82.00
5808;DHT22;2930;42.678;23.312;2023-03-01T14:29:54;9.70;82.40
5808;DHT22;2930;42.678;23.312;2023-03-01T14:32:25;9.80;81.70
5808;DHT22;2930;42.678;23.312;2023-03-01T14:34:52;9.90;81.60
5808;DHT22;2930;42.678;23.312;2023-03-01T14:37:32;9.90;81.60
5808;DHT22;2930;42.678;23.312;2023-03-01T14:39:59;9.80;81.50
5808;DHT22;2930;42.678;23.312;2023-03-01T14:42:29;9.90;81.70
5808;DHT22;2930;42.678;23.312;2023-03-01T14:44:57;9.90;81.90
5808;DHT22;2930;42.678;23.312;2023-03-01T14:50:01;10.00;82.30
5808;DHT22;2930;42.678;23.312;2023-03-01T14:52:40;10.10;82.30
5808;DHT22;2930;42.678;23.312;2023-03-01T14:55:19;10.10;82.30
5808;DHT22;2930;42.678;23.312;2023-03-01T14:57:48;10.00;82.50
5808;DHT22;2930;42.678;23.312;2023-03-01T15:02:49;10.00;82.30
5808;DHT22;2930;42.678;23.312;2023-03-01T15:05:25;9.90;82.30
5808;DHT22;2930;42.678;23.312;2023-03-01T15:07:51;9.80;82.50
5808;DHT22;2930;42.678;23.312;2023-03-01T15:10:23;9.70;82.90
5808;DHT22;2930;42.678;23.312;2023-03-01T15:12:50;9.60;83.40
5808;DHT22;2930;42.678;23.312;2023-03-01T15:20:49;9.30;84.00
5808;DHT22;2930;42.678;23.312;2023-03-01T15:23:29;9.10;84.60
5808;DHT22;2930;42.678;23.312;2023-03-01T15:25:56;9.00;84.80
5808;DHT22;2930;42.678;23.312;2023-03-01T15:28:27;8.90;85.20
5808;DHT22;2930;42.678;23.312;2023-03-01T15:31:11;8.90;85.30
5808;DHT22;2930;42.678;23.312;2023-03-01T15:33:41;8.80;85.60
5808;DHT22;2930;42.678;23.312;2023-03-01T15:36:46;8.80;85.40
5808;DHT22;2930;42.678;23.312;2023-03-01T15:39:41;8.70;85.90
5808;DHT22;2930;42.678;23.312;2023-03-01T15:47:43;8.50;86.40
5808;DHT22;2930;42.678;23.312;2023-03-01T15:50:23;8.40;87.00
5808;DHT22;2930;42.678;23.312;2023-03-01T15:52:49;8.40;87.00
5808;DHT22;2930;42.678;23.312;2023-03-01T15:55:26;8.20;87.50
5808;DHT22;2930;42.678;23.312;2023-03-01T15:58:04;8.00;87.70
5808;DHT22;2930;42.678;23.312;2023-03-01T16:00:30;8.00;87.90
5808;DHT22;2930;42.678;23.312;2023-03-01T16:02:56;8.00;88.10
5808;DHT22;2930;42.678;23.312;2023-03-01T16:05:26;8.00;88.20
5808;DHT22;2930;42.678;23.312;2023-03-01T16:07:52;8.00;88.00
5808;DHT22;2930;42.678;23.312;2023-03-01T16:10:19;8.00;88.30
5808;DHT22;2930;42.678;23.312;2023-03-01T16:12:45;8.00;88.60
5808;DHT22;2930;42.678;23.312;2023-03-01T16:15:25;8.00;89.00
5808;DHT22;2930;42.678;23.312;2023-03-01T16:17:51;7.90;88.70
5808;DHT22;2930;42.678;23.312;2023-03-01T16:20:20;7.70;89.00
5808;DHT22;2930;42.678;23.312;2023-03-01T16:22:46;7.50;89.80
5808;DHT22;2930;42.678;23.312;2023-03-01T16:25:16;7.40;90.00
5808;DHT22;2930;42.678;23.312;2023-03-01T16:27:44;7.40;90.00
5808;DHT22;2930;42.678;23.312;2023-03-01T16:30:12;7.40;89.80
5808;DHT22;2930;42.678;23.312;2023-03-01T16:32:43;7.40;89.90
5808;DHT22;2930;42.678;23.312;2023-03-01T16:35:11;7.40;89.90
5808;DHT22;2930;42.678;23.312;2023-03-01T16:37:37;7.20;90.30
5808;DHT22;2930;42.678;23.312;2023-03-01T16:40:04;7.20;90.50
5808;DHT22;2930;42.678;23.312;2023-03-01T16:42:34;7.20;90.50
5808;DHT22;2930;42.678;23.312;2023-03-01T16:45:00;7.10;90.80
5808;DHT22;2930;42.678;23.312;2023-03-01T16:47:27;7.20;90.60
5808;DHT22;2930;42.678;23.312;2023-03-01T16:49:53;7.10;90.70
5808;DHT22;2930;42.678;23.312;2023-03-01T16:52:19;7.10;90.90
5808;DHT22;2930;42.678;23.312;2023-03-01T16:54:45;7.00;90.80
5808;DHT22;2930;42.678;23.312;2023-03-01T16:57:11;6.90;91.20
5808;DHT22;2930;42.678;23.312;2023-03-01T16:59:36;6.80;91.50
5808;DHT22;2930;42.678;23.312;2023-03-01T17:02:03;6.80;91.70
5808;DHT22;2930;42.678;23.312;2023-03-01T17:04:29;6.80;91.70
5808;DHT22;2930;42.678;23.312;2023-03-01T17:06:55;6.70;91.70
5808;DHT22;2930;42.678;23.312;2023-03-01T17:09:20;6.70;92.10
5808;DHT22;2930;42.678;23.312;2023-03-01T17:11:48;6.70;91.90
5808;DHT22;2930;42.678;23.312;2023-03-01T17:14:15;6.70;91.80
5808;DHT22;2930;42.678;23.312;2023-03-01T17:16:42;6.80;91.90
5808;DHT22;2930;42.678;23.312;2023-03-01T17:19:08;6.60;92.30
5808;DHT22;2930;42.678;23.312;2023-03-01T17:21:34;6.70;92.00
5808;DHT22;2930;42.678;23.312;2023-03-01T17:24:00;6.70;92.50
5808;DHT22;2930;42.678;23.312;2023-03-01T17:26:26;6.70;92.40
5808;DHT22;2930;42.678;23.312;2023-03-01T17:28:54;6.70;92.50
5808;DHT22;2930;42.678;23.312;2023-03-01T17:31:21;6.60;92.70
5808;DHT22;2930;42.678;23.312;2023-03-01T17:33:48;6.70;92.50
5808;DHT22;2930;42.678;23.312;2023-03-01T17:36:14;6.70;92.40
5808;DHT22;2930;42.678;23.312;2023-03-01T17:38:40;6.70;92.70
5808;DHT22;2930;42.678;23.312;2023-03-01T17:41:06;6.70;92.60
5808;DHT22;2930;42.678;23.312;2023-03-01T17:43:32;6.70;92.70
5808;DHT22;2930;42.678;23.312;2023-03-01T17:45:59;6.70;92.60
5808;DHT22;2930;42.678;23.312;2023-03-01T17:48:25;6.70;92.70
5808;DHT22;2930;42.678;23.312;2023-03-01T17:50:51;6.50;93.00
5808;DHT22;2930;42.678;23.312;2023-03-01T17:53:17;6.60;93.00
5808;DHT22;2930;42.678;23.312;2023-03-01T17:55:44;6.50;93.20
5808;DHT22;2930;42.678;23.312;2023-03-01T17:58:12;6.50;93.10
5808;DHT22;2930;42.678;23.312;2023-03-01T18:00:38;6.50;93.40
5808;DHT22;2930;42.678;23.312;2023-03-01T18:03:05;6.50;93.20
5808;DHT22;2930;42.678;23.312;2023-03-01T18:05:35;6.40;93.50
5808;DHT22;2930;42.678;23.312;2023-03-01T18:08:03;6.40;93.60
5808;DHT22;2930;42.678;23.312;2023-03-01T18:10:31;6.40;93.60
5808;DHT22;2930;42.678;23.312;2023-03-01T18:12:57;6.40;93.30
5808;DHT22;2930;42.678;23.312;2023-03-01T18:15:22;6.40;93.50
5808;DHT22;2930;42.678;23.312;2023-03-01T18:17:48;6.30;93.50
5808;DHT22;2930;42.678;23.312;2023-03-01T18:20:15;6.20;93.90
5808;DHT22;2930;42.678;23.312;2023-03-01T18:22:42;6.20;94.00
5808;DHT22;2930;42.678;23.312;2023-03-01T18:25:08;6.30;93.70
5808;DHT22;2930;42.678;23.312;2023-03-01T18:27:34;6.20;93.90
5808;DHT22;2930;42.678;23.312;2023-03-01T18:30:02;6.30;93.90
5808;DHT22;2930;42.678;23.312;2023-03-01T18:32:28;6.30;93.90